Virginia, Brazil
Current Conditions -  °F | °C
As of 3:00 PM on Sunday 21 Dec 2014 (Local Time) from SBGW Reporting Station
Scattered Clouds Scattered Clouds  
Wind Chill: 91°   Ceiling: Unl
Heat Index: 94°   Visibility: 6mi
Dew Point: 66°   Wind: 10mph
Humidity: 43%   Direction: 350°N
Pressure: 29.85"   Gusts: NA
Location:  22.33°S, 45.09°W
Report Text: SBGW 211700Z 35009KT 320V020 9999 SCT030 FEW033TCU SCT080 33/19 Q1011
Loading
Personal Weather Stations






























Interactive Weather Map New forecast layout! Learn more

10-Day Weather Forecast

Advertisements
Track Severe Weather on mobile